Time;durP1;ratioP1;P1;durP2;ratioP2;P2;SDS_P1;SDS_P2;PMS_P1;PMS_P2;Temp;Humidity;BMP_temperature;BMP_pressure;BME280_temperature;BME280_humidity;BME280_pressure;Samples;Min_cycle;Max_cycle;Signal;HPM_P1;HPM_P2
2021/09/15 00:01:51;;;;;;;6.05;4.62;;;;;;;25.27;40.26;101389.56;144994;586;5002;-80
2021/09/15 00:04:18;;;;;;;5.82;4.45;;;;;;;25.26;40.55;101379.84;144994;911;5002;-79
2021/09/15 00:06:45;;;;;;;7.20;4.68;;;;;;;25.25;40.41;101375.44;144994;574;5002;-80
2021/09/15 00:09:11;;;;;;;5.28;4.57;;;;;;;25.25;40.31;101380.75;144994;590;5002;-78
2021/09/15 00:11:38;;;;;;;8.25;5.22;;;;;;;25.24;40.27;101379.00;144994;593;5002;-80
2021/09/15 00:14:04;;;;;;;6.78;4.12;;;;;;;25.21;40.09;101376.41;144994;594;5002;-80
2021/09/15 00:16:31;;;;;;;6.18;4.45;;;;;;;25.21;40.15;101372.87;144994;668;5002;-80
2021/09/15 00:18:58;;;;;;;5.53;4.32;;;;;;;25.20;40.14;101372.00;144994;587;5002;-80
2021/09/15 00:21:25;;;;;;;6.28;4.65;;;;;;;25.21;40.51;101364.91;144994;697;5002;-80
2021/09/15 00:23:51;;;;;;;5.20;4.70;;;;;;;25.19;40.25;101366.72;144994;599;5002;-80
2021/09/15 00:26:18;;;;;;;5.03;4.53;;;;;;;25.17;40.32;101358.78;144994;564;5002;-79
2021/09/15 00:28:44;;;;;;;7.72;4.68;;;;;;;25.15;40.61;101364.12;144994;586;5002;-82
2021/09/15 00:31:11;;;;;;;6.32;4.57;;;;;;;25.12;40.81;101361.53;144994;553;5002;-77
2021/09/15 00:33:37;;;;;;;6.32;4.87;;;;;;;25.10;40.70;101360.72;144994;579;5002;-81
2021/09/15 00:36:04;;;;;;;5.87;4.47;;;;;;;25.09;40.98;101364.25;144994;588;5002;-77
2021/09/15 00:38:31;;;;;;;8.05;4.72;;;;;;;25.08;41.06;101357.19;144994;570;5002;-80
2021/09/15 00:40:57;;;;;;;7.65;4.37;;;;;;;25.07;40.97;101351.91;144994;852;5002;-80
2021/09/15 00:43:24;;;;;;;5.65;4.32;;;;;;;25.06;40.56;101353.69;144994;634;5002;-79
2021/09/15 00:45:50;;;;;;;7.53;4.85;;;;;;;25.04;40.42;101350.22;144993;642;5002;-78
2021/09/15 00:48:16;;;;;;;5.82;4.35;;;;;;;25.04;40.41;101352.84;144994;619;5002;-81
2021/09/15 00:50:43;;;;;;;5.35;4.68;;;;;;;25.04;40.64;101349.31;144994;641;5002;-81
2021/09/15 00:53:10;;;;;;;8.05;4.00;;;;;;;25.01;40.20;101352.91;144994;563;5002;-80
2021/09/15 00:55:37;;;;;;;6.87;4.45;;;;;;;24.98;40.36;101353.84;144994;579;5002;-81
2021/09/15 00:58:03;;;;;;;7.22;4.70;;;;;;;24.96;40.46;101355.66;144994;600;5002;-81
2021/09/15 01:00:30;;;;;;;7.43;5.05;;;;;;;24.95;40.18;101350.38;144994;591;4568;-78
2021/09/15 01:02:57;;;;;;;5.75;4.97;;;;;;;24.94;39.82;101351.28;144994;593;4572;-81
2021/09/15 01:05:23;;;;;;;5.80;4.87;;;;;;;24.95;39.72;101353.91;144993;586;6002;-79
2021/09/15 01:07:51;;;;;;;7.12;4.95;;;;;;;24.94;39.67;101349.53;144992;571;6002;-79
2021/09/15 01:10:17;;;;;;;9.82;4.85;;;;;;;24.92;39.65;101348.66;144992;586;6002;-78
2021/09/15 01:12:44;;;;;;;6.20;5.12;;;;;;;24.90;40.04;101357.56;144992;571;6002;-80
2021/09/15 01:15:11;;;;;;;5.62;5.05;;;;;;;24.87;39.57;101347.88;144992;563;6002;-81
2021/09/15 01:17:37;;;;;;;6.68;4.72;;;;;;;24.86;39.51;101356.75;144992;572;6002;-80
2021/09/15 01:20:05;;;;;;;6.57;4.97;;;;;;;24.84;39.96;101360.34;144992;573;6002;-80
2021/09/15 01:22:31;;;;;;;7.03;5.00;;;;;;;24.83;39.43;101364.75;144992;575;6002;-79
2021/09/15 01:24:58;;;;;;;7.95;5.53;;;;;;;24.80;39.68;101364.81;144992;579;6002;-81
2021/09/15 01:27:24;;;;;;;6.78;5.40;;;;;;;24.78;38.94;101361.31;144991;599;6002;-80
2021/09/15 01:29:51;;;;;;;5.87;5.00;;;;;;;24.71;39.80;101363.22;144992;604;6002;-79
2021/09/15 01:32:17;;;;;;;5.95;4.90;;;;;;;24.65;39.92;101358.03;144992;589;6002;-78
2021/09/15 01:34:51;;;;;;;5.37;4.87;;;;;;;24.59;39.65;101355.50;144992;579;6002;-77
2021/09/15 01:37:19;;;;;;;5.47;4.97;;;;;;;24.50;39.67;101359.16;144997;583;6002;-80
2021/09/15 01:39:45;;;;;;;7.22;4.65;;;;;;;24.49;39.80;101348.59;144992;653;6002;-80
2021/09/15 01:42:11;;;;;;;7.43;5.57;;;;;;;24.48;39.78;101360.94;144992;637;6002;-78
2021/09/15 01:44:44;;;;;;;5.78;5.28;;;;;;;24.47;39.43;101366.28;144992;569;6002;-80
2021/09/15 01:47:15;;;;;;;6.30;5.70;;;;;;;24.42;39.89;101361.09;144992;564;6002;-80
2021/09/15 01:49:43;;;;;;;5.55;4.93;;;;;;;24.43;39.58;101363.72;144992;586;6002;-81
2021/09/15 01:52:11;;;;;;;5.95;5.35;;;;;;;24.49;39.75;101354.75;144992;566;6002;-80
2021/09/15 01:54:38;;;;;;;7.95;6.20;;;;;;;24.53;39.47;101359.13;144992;566;6002;-80
2021/09/15 01:57:05;;;;;;;8.45;7.60;;;;;;;24.56;39.63;101351.13;144992;609;6002;-81
2021/09/15 01:59:31;;;;;;;7.55;6.85;;;;;;;24.56;39.33;101353.78;144992;569;6002;-78
2021/09/15 02:01:58;;;;;;;7.45;6.28;;;;;;;24.56;39.09;101358.16;144992;585;6002;-79
2021/09/15 02:04:24;;;;;;;7.85;6.30;;;;;;;24.56;39.51;101364.41;144992;578;6002;-78
2021/09/15 02:06:51;;;;;;;5.72;5.12;;;;;;;24.56;39.74;101364.41;144992;592;6002;-80
2021/09/15 02:09:18;;;;;;;7.47;4.70;;;;;;;24.57;39.56;101362.63;144992;587;6002;-79
2021/09/15 02:11:44;;;;;;;6.43;5.68;;;;;;;24.58;39.76;101365.25;144992;600;6002;-80
2021/09/15 02:14:11;;;;;;;8.73;5.75;;;;;;;24.58;39.58;101364.38;144992;570;6002;-79
2021/09/15 02:16:38;;;;;;;6.72;5.57;;;;;;;24.58;40.14;101365.25;144992;632;6002;-80
2021/09/15 02:19:04;;;;;;;8.27;5.70;;;;;;;24.58;39.70;101362.59;144992;563;6002;-80
2021/09/15 02:21:31;;;;;;;5.85;5.25;;;;;;;24.59;39.93;101363.44;144992;571;6002;-80
2021/09/15 02:23:58;;;;;;;7.82;6.00;;;;;;;24.59;40.26;101358.16;144992;592;6003;-78
2021/09/15 02:26:25;;;;;;;8.80;6.20;;;;;;;24.59;40.40;101372.31;144992;582;6002;-81
2021/09/15 02:28:51;;;;;;;8.73;6.43;;;;;;;24.58;40.05;101365.25;144992;603;6002;-79
2021/09/15 02:31:18;;;;;;;9.65;6.50;;;;;;;24.57;40.28;101376.75;144992;593;6003;-80
2021/09/15 02:33:44;;;;;;;11.12;5.93;;;;;;;24.54;40.58;101382.06;144992;564;6002;-80
2021/09/15 02:36:13;;;;;;;9.98;6.97;;;;;;;24.53;40.57;101383.00;144992;598;6002;-79
2021/09/15 02:38:40;;;;;;;8.98;6.12;;;;;;;24.50;40.55;101384.81;144992;570;6002;-79
2021/09/15 02:41:07;;;;;;;8.48;6.43;;;;;;;24.48;40.89;101382.19;144992;592;6002;-81
2021/09/15 02:43:34;;;;;;;9.10;6.22;;;;;;;24.47;41.12;101392.81;144992;621;6002;-78
2021/09/15 02:46:00;;;;;;;10.05;6.82;;;;;;;24.42;41.14;101387.62;144992;661;6002;-78
2021/09/15 02:48:27;;;;;;;10.32;6.43;;;;;;;24.42;41.00;101398.25;144992;591;6002;-81
2021/09/15 02:50:54;;;;;;;9.80;6.07;;;;;;;24.40;40.86;101392.06;144992;621;6002;-79
2021/09/15 02:53:20;;;;;;;10.82;6.72;;;;;;;24.39;41.17;101395.63;144992;565;6002;-80
2021/09/15 02:55:47;;;;;;;9.45;6.32;;;;;;;24.38;41.46;101401.84;144992;667;6002;-79
2021/09/15 02:58:14;;;;;;;9.30;6.53;;;;;;;24.36;41.52;101395.69;144992;575;6002;-81
2021/09/15 03:00:41;;;;;;;9.38;6.45;;;;;;;24.35;41.08;101396.56;144992;563;6002;-78
2021/09/15 03:03:08;;;;;;;9.85;6.82;;;;;;;24.35;41.19;101399.22;144992;569;6002;-79
2021/09/15 03:05:34;;;;;;;11.32;7.12;;;;;;;24.34;41.23;101408.06;144992;598;6002;-79
2021/09/15 03:08:01;;;;;;;10.75;6.97;;;;;;;24.30;40.91;101415.22;144991;614;6002;-80
2021/09/15 03:10:28;;;;;;;9.55;6.45;;;;;;;24.19;41.08;101420.69;144992;613;6002;-79
2021/09/15 03:12:57;;;;;;;11.30;7.10;;;;;;;24.18;41.42;101423.37;144992;591;6002;-81
2021/09/15 03:15:36;;;;;;;8.73;6.97;;;;;;;24.20;41.39;101427.75;144992;576;6002;-80
2021/09/15 03:18:02;;;;;;;18.25;9.25;;;;;;;24.29;41.45;101426.72;144992;640;6002;-77
2021/09/15 03:20:29;;;;;;;15.60;8.68;;;;;;;24.35;41.43;101420.44;144992;609;6002;-81
2021/09/15 03:22:55;;;;;;;14.20;9.25;;;;;;;24.38;41.17;101423.94;144992;587;6002;-79
2021/09/15 03:25:22;;;;;;;15.18;9.45;;;;;;;24.39;41.39;101417.72;144992;585;6002;-81
2021/09/15 03:27:48;;;;;;;15.32;9.55;;;;;;;24.38;41.56;101426.56;144992;586;6002;-81
2021/09/15 03:30:16;;;;;;;12.23;9.18;;;;;;;24.38;41.45;101431.03;144992;647;6002;-78
2021/09/15 03:32:42;;;;;;;15.57;9.30;;;;;;;24.36;41.89;101428.38;144992;581;6002;-80
2021/09/15 03:35:10;;;;;;;17.20;9.95;;;;;;;24.36;42.01;101439.00;144992;565;6002;-80
2021/09/15 03:37:36;;;;;;;20.23;9.85;;;;;;;24.33;41.69;101439.06;144992;594;6002;-80
2021/09/15 03:40:03;;;;;;;20.30;10.65;;;;;;;24.31;41.97;101439.97;144992;597;6002;-81
2021/09/15 03:42:30;;;;;;;13.82;9.85;;;;;;;24.25;42.23;101433.87;144992;579;6002;-81
2021/09/15 03:45:00;;;;;;;13.60;9.20;;;;;;;24.23;42.02;101429.50;144992;582;6002;-78
2021/09/15 03:47:26;;;;;;;16.50;9.32;;;;;;;24.20;42.41;101438.38;144992;591;6002;-79
2021/09/15 03:49:53;;;;;;;23.27;10.75;;;;;;;24.16;42.34;101434.00;144992;582;6002;-80
2021/09/15 03:52:19;;;;;;;16.75;9.05;;;;;;;24.13;42.18;101438.47;144992;584;6002;-80
2021/09/15 03:54:46;;;;;;;18.40;9.60;;;;;;;24.13;42.64;101444.66;144992;599;6002;-78
2021/09/15 03:57:13;;;;;;;17.40;10.00;;;;;;;24.13;42.48;101439.34;144992;565;6002;-78
2021/09/15 03:59:39;;;;;;;18.05;9.85;;;;;;;24.12;42.73;101442.91;144992;569;6002;-78
2021/09/15 04:02:06;;;;;;;21.05;10.07;;;;;;;24.13;42.73;101446.44;144992;628;6002;-79
2021/09/15 04:04:32;;;;;;;21.37;10.70;;;;;;;24.10;42.79;101444.72;144992;611;6002;-80
2021/09/15 04:06:59;;;;;;;20.40;9.70;;;;;;;24.09;42.65;101442.97;144992;587;6002;-80
2021/09/15 04:09:25;;;;;;;17.35;9.95;;;;;;;24.07;42.77;101450.94;144992;564;6002;-79
2021/09/15 04:11:52;;;;;;;19.67;9.90;;;;;;;24.06;42.84;101459.78;144992;659;6002;-78
2021/09/15 04:14:18;;;;;;;18.37;11.00;;;;;;;24.07;42.74;101455.38;144992;585;6002;-80
2021/09/15 04:16:44;;;;;;;20.25;9.63;;;;;;;24.06;42.96;101456.28;144992;580;6002;-81
2021/09/15 04:19:11;;;;;;;20.10;10.80;;;;;;;24.05;43.07;101458.06;144992;569;6002;-80
2021/09/15 04:21:39;;;;;;;18.55;10.57;;;;;;;24.05;42.95;101457.16;144992;571;6002;-80
2021/09/15 04:24:33;;;;;;;19.00;10.30;;;;;;;24.03;42.79;101458.97;144992;647;6002;-80
2021/09/15 04:32:28;;;;;;;19.12;10.30;;;;;;;24.04;42.49;101466.03;144992;621;6004;-76
2021/09/15 04:34:54;;;;;;;15.32;9.48;;;;;;;24.04;42.53;101472.19;144992;593;6002;-78
2021/09/15 04:37:21;;;;;;;14.93;10.00;;;;;;;24.04;42.44;101472.19;144992;584;6002;-78
2021/09/15 04:39:47;;;;;;;19.20;9.88;;;;;;;24.05;42.78;101481.03;144992;625;6002;-77
2021/09/15 04:42:13;;;;;;;18.25;9.10;;;;;;;24.04;42.71;101482.81;144992;587;6002;-77
2021/09/15 04:44:40;;;;;;;16.15;9.05;;;;;;;24.05;42.25;101488.97;144992;674;6002;-78
2021/09/15 04:47:06;;;;;;;18.50;9.50;;;;;;;24.06;42.72;101488.97;144992;573;6002;-79
2021/09/15 04:49:33;;;;;;;14.45;9.05;;;;;;;24.10;42.31;101497.78;144992;616;6002;-79
2021/09/15 04:52:00;;;;;;;17.20;8.90;;;;;;;24.12;42.75;101495.97;144992;575;6002;-79
2021/09/15 04:54:26;;;;;;;14.68;9.52;;;;;;;24.15;42.22;101503.88;144992;599;6002;-78
2021/09/15 04:56:52;;;;;;;18.15;10.30;;;;;;;24.18;42.69;101505.59;144992;577;6002;-79
2021/09/15 04:59:19;;;;;;;15.48;10.93;;;;;;;24.21;42.33;101505.56;144992;591;6002;-79
2021/09/15 05:01:45;;;;;;;21.05;10.93;;;;;;;24.22;42.62;101510.84;144992;607;6002;-78
2021/09/15 05:04:12;;;;;;;15.27;8.32;;;;;;;24.21;42.62;101508.19;144992;589;6002;-78
2021/09/15 05:06:38;;;;;;;17.90;9.68;;;;;;;24.22;42.61;101512.63;144992;563;6002;-78
2021/09/15 05:09:05;;;;;;;12.13;8.75;;;;;;;24.24;42.39;101511.72;144992;647;6002;-79
2021/09/15 05:11:31;;;;;;;13.75;7.65;;;;;;;24.27;42.75;101516.97;144992;591;6002;-78
2021/09/15 05:13:58;;;;;;;16.77;7.75;;;;;;;24.33;42.40;101518.66;144992;581;6002;-77
2021/09/15 05:16:24;;;;;;;13.82;8.52;;;;;;;24.36;42.65;101526.56;144992;636;6002;-78
2021/09/15 05:18:51;;;;;;;14.95;8.90;;;;;;;24.39;42.48;101523.88;144992;581;6002;-79
2021/09/15 05:21:17;;;;;;;13.10;7.75;;;;;;;24.42;42.56;101526.47;144992;589;6002;-78
2021/09/15 05:23:43;;;;;;;12.37;8.00;;;;;;;24.47;42.38;101522.84;144992;591;6002;-78
2021/09/15 05:26:10;;;;;;;11.25;7.40;;;;;;;24.48;42.31;101525.47;144992;620;6002;-78
2021/09/15 05:28:36;;;;;;;10.35;7.32;;;;;;;24.53;42.15;101530.72;144992;578;6002;-78
2021/09/15 05:31:03;;;;;;;13.27;8.02;;;;;;;24.57;42.02;101533.34;144992;623;6002;-78
2021/09/15 05:33:29;;;;;;;10.55;7.20;;;;;;;24.59;41.90;101533.31;144992;590;6002;-77
2021/09/15 05:35:56;;;;;;;13.82;7.90;;;;;;;24.62;42.03;101534.16;144992;571;6002;-77
2021/09/15 05:38:22;;;;;;;10.40;6.97;;;;;;;24.64;41.53;101536.78;144992;575;6002;-76
2021/09/15 05:40:49;;;;;;;12.07;6.90;;;;;;;24.69;41.93;101542.91;144992;634;6002;-78
2021/09/15 05:43:15;;;;;;;11.32;7.07;;;;;;;24.75;41.56;101533.94;144992;618;6002;-78
2021/09/15 05:45:41;;;;;;;12.63;7.18;;;;;;;24.81;41.88;101540.03;144992;589;6002;-79
2021/09/15 05:48:08;;;;;;;10.80;6.78;;;;;;;24.87;41.38;101531.09;144992;597;6002;-78
2021/09/15 05:50:34;;;;;;;8.45;6.12;;;;;;;24.92;41.28;101537.19;144992;606;6002;-79
2021/09/15 05:53:01;;;;;;;9.60;6.53;;;;;;;24.95;40.85;101539.81;144992;585;6003;-77
2021/09/15 05:55:27;;;;;;;8.35;6.32;;;;;;;25.01;41.17;101538.84;144992;612;6002;-78
2021/09/15 05:57:54;;;;;;;12.52;6.40;;;;;;;25.05;40.90;101540.53;144992;597;6002;-77
2021/09/15 06:00:20;;;;;;;13.70;6.70;;;;;;;25.10;41.05;101540.44;144992;569;6002;-78
2021/09/15 06:02:47;;;;;;;14.23;6.53;;;;;;;25.12;40.67;101531.56;144992;616;6002;-78
2021/09/15 06:05:13;;;;;;;8.82;6.47;;;;;;;25.17;40.68;101536.78;144992;569;6002;-78
2021/09/15 06:07:39;;;;;;;11.85;7.47;;;;;;;25.23;40.76;101533.12;144992;584;6002;-78
2021/09/15 06:10:07;;;;;;;13.13;7.03;;;;;;;25.28;40.92;101537.50;144992;592;6002;-77
2021/09/15 06:12:33;;;;;;;12.50;7.35;;;;;;;25.34;40.34;101540.03;144992;565;6002;-78
2021/09/15 06:15:00;;;;;;;13.02;8.13;;;;;;;25.39;40.23;101533.75;144992;675;6002;-78
2021/09/15 06:17:26;;;;;;;12.75;8.07;;;;;;;25.44;40.64;101539.88;144992;651;6002;-75
2021/09/15 06:19:53;;;;;;;13.05;8.43;;;;;;;25.51;40.41;101537.03;144992;588;6002;-77
2021/09/15 06:22:19;;;;;;;12.85;7.82;;;;;;;25.57;40.43;101538.72;144992;588;6002;-77
2021/09/15 06:24:48;;;;;;;13.93;6.75;;;;;;;25.63;40.27;101541.25;144992;565;6002;-78
2021/09/15 06:27:17;;;;;;;11.70;6.12;;;;;;;25.69;39.93;101537.56;144992;580;6002;-77
2021/09/15 06:29:43;;;;;;;11.18;7.43;;;;;;;25.76;40.07;101541.87;144992;588;6002;-78
2021/09/15 06:32:10;;;;;;;14.95;8.32;;;;;;;25.82;40.03;101539.09;144992;591;6011;-79
2021/09/15 06:34:36;;;;;;;14.87;7.53;;;;;;;25.87;39.98;101539.88;144992;563;6002;-77
2021/09/15 06:37:04;;;;;;;13.48;7.57;;;;;;;25.95;40.25;101539.72;144992;586;6003;-80
2021/09/15 06:39:31;;;;;;;10.35;6.82;;;;;;;26.04;40.10;101541.31;144992;584;6002;-79
2021/09/15 06:41:57;;;;;;;13.65;7.20;;;;;;;26.14;39.97;101550.84;144991;607;6002;-80
2021/09/15 06:44:24;;;;;;;12.20;7.00;;;;;;;26.24;39.79;101559.50;144992;586;6003;-76
2021/09/15 06:46:50;;;;;;;13.80;7.35;;;;;;;26.34;39.85;101549.53;144992;585;6002;-77
2021/09/15 06:49:16;;;;;;;9.77;6.90;;;;;;;26.44;39.54;101548.41;144992;686;6002;-78
2021/09/15 06:51:43;;;;;;;16.90;6.95;;;;;;;26.54;39.64;101547.28;144992;648;6002;-78
2021/09/15 06:54:09;;;;;;;11.57;7.32;;;;;;;26.67;39.91;101547.88;144992;911;6002;-81
2021/09/15 06:56:36;;;;;;;13.48;7.25;;;;;;;26.79;39.54;101552.06;144992;781;6002;-82
2021/09/15 06:59:02;;;;;;;12.75;7.00;;;;;;;26.87;39.64;101552.72;144992;572;6002;-81
2021/09/15 07:01:29;;;;;;;15.23;7.65;;;;;;;26.96;39.58;101548.94;144991;911;6002;-81
2021/09/15 07:03:55;;;;;;;18.48;8.02;;;;;;;27.08;39.87;101553.97;144992;590;6002;-81
2021/09/15 07:06:22;;;;;;;11.68;6.43;;;;;;;27.22;39.56;101555.37;144992;641;6002;-81
2021/09/15 07:08:54;;;;;;;12.37;7.32;;;;;;;27.29;39.41;101554.31;144992;911;6002;-83
2021/09/15 07:11:21;;;;;;;14.00;6.72;;;;;;;27.37;39.44;101555.00;144992;579;6002;-81
2021/09/15 07:13:48;;;;;;;14.55;6.57;;;;;;;27.42;39.45;101565.56;144992;771;6002;-80
2021/09/15 07:16:15;;;;;;;10.93;5.70;;;;;;;27.37;39.41;101557.66;144992;616;6002;-80
2021/09/15 07:18:42;;;;;;;15.10;6.82;;;;;;;27.41;38.20;101570.03;144992;910;6002;-82
2021/09/15 07:21:08;;;;;;;12.13;7.10;;;;;;;27.46;39.57;101568.09;144993;577;6002;-81
2021/09/15 07:23:35;;;;;;;11.73;6.47;;;;;;;27.55;39.06;101560.75;144993;564;6002;-82
2021/09/15 07:26:01;;;;;;;10.73;6.43;;;;;;;27.66;39.30;101564.00;144993;645;6002;-81
2021/09/15 07:28:28;;;;;;;8.88;6.28;;;;;;;27.74;39.06;101571.78;144993;621;6002;-81
2021/09/15 07:30:54;;;;;;;11.93;7.22;;;;;;;27.85;39.10;101564.34;144993;564;6002;-81
2021/09/15 07:33:21;;;;;;;10.18;6.50;;;;;;;27.99;39.03;101564.84;144993;581;6002;-81
2021/09/15 07:35:47;;;;;;;9.73;6.30;;;;;;;28.14;38.86;101573.28;144993;572;6002;-81
2021/09/15 07:38:14;;;;;;;13.10;6.85;;;;;;;28.29;38.80;101571.97;144993;611;6002;-81
2021/09/15 07:40:40;;;;;;;21.85;15.60;;;;;;;28.47;38.76;101567.84;144993;594;6002;-81
2021/09/15 07:43:07;;;;;;;13.75;9.07;;;;;;;28.63;38.39;101568.25;144993;569;6002;-80
2021/09/15 07:45:33;;;;;;;11.12;7.30;;;;;;;28.81;38.38;101574.78;144993;585;6002;-82
2021/09/15 07:48:00;;;;;;;7.72;6.93;;;;;;;28.93;38.12;101574.38;144993;658;6002;-82
2021/09/15 07:50:26;;;;;;;9.02;6.55;;;;;;;29.09;38.00;101569.37;144993;591;6002;-81
2021/09/15 07:52:53;;;;;;;8.93;5.90;;;;;;;29.23;36.46;101567.12;144992;600;6002;-81
2021/09/15 07:55:19;;;;;;;8.10;5.82;;;;;;;29.40;37.80;101560.31;144992;590;6002;-83
2021/09/15 07:57:47;;;;;;;8.43;5.85;;;;;;;29.52;36.22;101559.88;144992;595;6002;-84
2021/09/15 08:00:14;;;;;;;10.23;6.28;;;;;;;29.62;37.13;101563.97;144992;599;6002;-85
2021/09/15 08:02:41;;;;;;;7.60;5.82;;;;;;;29.76;37.46;101560.75;144992;577;6002;-83
2021/09/15 08:05:08;;;;;;;8.80;6.50;;;;;;;29.88;37.17;101564.81;144992;677;6002;-83
2021/09/15 08:07:34;;;;;;;7.15;5.50;;;;;;;30.00;37.58;101553.66;144993;622;6002;-82
2021/09/15 08:10:00;;;;;;;8.95;5.60;;;;;;;30.12;34.65;101560.31;144993;573;6002;-84
2021/09/15 08:12:27;;;;;;;8.90;5.40;;;;;;;30.23;36.23;101554.56;144993;563;6002;-85
2021/09/15 08:14:54;;;;;;;10.02;5.30;;;;;;;30.33;36.61;101565.78;144993;605;6002;-82
2021/09/15 08:17:23;;;;;;;7.82;5.18;;;;;;;30.41;35.55;101563.69;144993;569;6002;-84
2021/09/15 08:19:50;;;;;;;10.75;5.25;;;;;;;30.47;37.02;101565.25;144993;683;6002;-83
2021/09/15 08:22:16;;;;;;;9.77;5.10;;;;;;;30.49;36.09;101560.69;144993;587;6002;-86
2021/09/15 08:24:43;;;;;;;6.97;5.03;;;;;;;30.49;35.40;101558.87;144993;612;6002;-87
2021/09/15 08:27:09;;;;;;;8.98;5.43;;;;;;;30.52;35.34;101561.44;144993;570;6002;-90
2021/09/15 08:29:36;;;;;;;9.00;5.32;;;;;;;30.33;34.86;101558.59;144993;675;6002;-85
2021/09/15 08:32:03;;;;;;;9.75;6.12;;;;;;;30.29;34.92;101561.47;144993;637;6002;-86
2021/09/15 08:34:29;;;;;;;7.65;5.43;;;;;;;30.10;34.70;101564.00;144993;627;6002;-83
2021/09/15 08:36:56;;;;;;;9.57;6.10;;;;;;;29.82;35.61;101557.88;144993;631;6002;-83
2021/09/15 08:39:22;;;;;;;8.73;6.12;;;;;;;29.51;36.74;101560.81;144993;569;6002;-87
2021/09/15 08:41:50;;;;;;;7.50;6.47;;;;;;;29.42;36.88;101562.00;144993;596;6002;-90
2021/09/15 08:44:17;;;;;;;8.73;6.30;;;;;;;29.22;38.63;101560.03;144993;621;6002;-86
2021/09/15 08:46:45;;;;;;;7.75;6.45;;;;;;;29.12;38.26;101555.91;144993;593;6002;-86
2021/09/15 08:49:12;;;;;;;18.65;8.15;;;;;;;29.04;39.29;101555.31;144993;580;6002;-87
2021/09/15 08:51:38;;;;;;;8.98;6.25;;;;;;;29.06;39.08;101565.00;144993;599;6003;-85
2021/09/15 08:54:06;;;;;;;11.68;6.53;;;;;;;29.07;39.20;101563.22;144993;597;6002;-85
2021/09/15 08:56:33;;;;;;;8.82;6.22;;;;;;;28.73;40.07;101562.56;144993;587;6002;-89
2021/09/15 08:58:59;;;;;;;10.57;6.50;;;;;;;28.77;39.65;101556.19;144993;567;6002;-87
2021/09/15 09:01:28;;;;;;;12.57;6.50;;;;;;;28.67;39.78;101554.75;144994;734;5002;-83
2021/09/15 09:03:56;;;;;;;8.85;6.20;;;;;;;28.42;40.96;101552.81;144994;650;5002;-88
2021/09/15 09:06:26;;;;;;;7.30;6.28;;;;;;;28.50;40.35;101543.72;144994;570;5002;-84
2021/09/15 09:08:54;;;;;;;10.25;6.35;;;;;;;28.55;40.64;101552.44;144994;569;5002;-83
2021/09/15 09:11:25;;;;;;;7.85;5.93;;;;;;;28.54;40.99;101543.56;144994;593;5002;-87
2021/09/15 09:13:57;;;;;;;5.87;5.28;;;;;;;28.48;41.13;101543.75;144993;660;5002;-79
2021/09/15 09:16:48;;;;;;;10.00;5.65;;;;;;;28.47;40.28;101539.31;144994;570;5002;-81
2021/09/15 09:19:17;;;;;;;6.87;5.45;;;;;;;28.64;39.68;101544.16;144994;598;5002;-81
2021/09/15 09:21:48;;;;;;;8.68;5.78;;;;;;;28.54;39.67;101548.91;144994;640;5002;-82
2021/09/15 09:24:20;;;;;;;6.28;4.93;;;;;;;28.70;38.92;101537.75;144994;676;5002;-80
2021/09/15 09:27:06;;;;;;;5.93;4.30;;;;;;;28.68;35.17;101536.91;144994;647;5002;-84
2021/09/15 09:29:35;;;;;;;8.88;4.85;;;;;;;28.59;37.89;101538.13;144994;616;5004;-82
2021/09/15 09:32:11;;;;;;;8.20;5.15;;;;;;;28.84;37.62;101538.16;144994;561;5004;-80
2021/09/15 09:34:47;;;;;;;7.53;4.80;;;;;;;28.92;37.25;101538.78;144994;632;5004;-82
2021/09/15 09:37:19;;;;;;;6.72;4.75;;;;;;;28.84;36.97;101540.84;144994;580;5004;-80
2021/09/15 09:39:57;;;;;;;6.30;4.57;;;;;;;28.94;35.99;101534.25;144994;568;5004;-86
2021/09/15 09:42:35;;;;;;;5.45;4.50;;;;;;;29.12;36.05;101535.41;144994;715;5004;-83
2021/09/15 09:45:16;;;;;;;6.85;4.47;;;;;;;29.05;35.60;101533.88;144994;642;5002;-84
2021/09/15 09:47:45;;;;;;;5.97;4.30;;;;;;;29.08;33.72;101528.44;144994;572;5002;-83
2021/09/15 09:50:18;;;;;;;7.37;4.22;;;;;;;29.01;33.85;101529.56;144994;595;5002;-86
2021/09/15 09:53:01;;;;;;;5.32;4.45;;;;;;;28.82;34.18;101526.62;144994;650;5002;-83
2021/09/15 09:55:34;;;;;;;7.20;4.70;;;;;;;28.89;34.77;101527.28;144994;566;5002;-91
2021/09/15 09:58:04;;;;;;;6.32;4.47;;;;;;;28.46;38.04;101529.59;144994;638;5002;-82
2021/09/15 10:00:31;;;;;;;7.97;4.55;;;;;;;28.57;36.25;101524.81;144994;606;5002;-82
2021/09/15 10:02:59;;;;;;;8.13;4.72;;;;;;;28.57;36.96;101516.78;144994;682;5002;-80
2021/09/15 10:05:25;;;;;;;6.72;4.62;;;;;;;28.49;37.15;101526.81;144994;690;5002;-84
2021/09/15 10:07:52;;;;;;;5.25;4.75;;;;;;;28.49;37.29;101524.16;144994;570;5002;-81
2021/09/15 10:10:20;;;;;;;5.40;4.72;;;;;;;28.34;37.65;101514.81;144993;624;5002;-81
2021/09/15 10:12:50;;;;;;;5.55;4.28;;;;;;;28.51;38.07;101529.44;144994;622;5002;-84
2021/09/15 10:15:18;;;;;;;6.55;4.50;;;;;;;28.46;37.16;101521.59;144994;564;5002;-80
2021/09/15 10:17:55;;;;;;;6.68;4.65;;;;;;;28.36;37.13;101514.78;144994;576;5002;-83
2021/09/15 10:20:25;;;;;;;10.15;4.55;;;;;;;28.40;36.87;101517.31;144994;580;5002;-82
2021/09/15 10:22:52;;;;;;;6.70;4.45;;;;;;;28.34;38.59;101512.16;144994;570;5002;-81
2021/09/15 10:25:33;;;;;;;6.18;4.60;;;;;;;28.33;37.99;101513.09;144994;622;5002;-80
2021/09/15 10:28:06;;;;;;;9.23;4.55;;;;;;;28.25;38.45;101516.91;144994;575;5002;-78
2021/09/15 10:30:52;;;;;;;6.03;4.82;;;;;;;28.29;39.17;101513.25;144994;603;5002;-80
2021/09/15 10:33:56;;;;;;;7.93;4.95;;;;;;;28.53;38.67;101517.78;144994;569;5002;-80
2021/09/15 10:36:37;;;;;;;7.80;6.03;;;;;;;28.57;38.49;101519.47;144994;658;5004;-79
2021/09/15 10:39:04;;;;;;;7.47;4.80;;;;;;;28.55;37.75;101513.25;144994;615;5004;-82
2021/09/15 10:41:48;;;;;;;10.10;4.85;;;;;;;28.57;37.41;101514.13;144994;580;5004;-78
2021/09/15 10:44:16;;;;;;;8.63;5.50;;;;;;;28.50;37.72;101507.19;144994;579;5002;-80
2021/09/15 10:46:45;;;;;;;5.62;4.53;;;;;;;28.62;36.95;101503.28;144994;585;5004;-79
2021/09/15 10:49:41;;;;;;;6.70;4.53;;;;;;;28.41;36.52;101495.03;144994;580;5002;-81
2021/09/15 10:52:30;;;;;;;9.02;4.65;;;;;;;28.51;36.80;101498.25;144994;574;5004;-79
2021/09/15 10:54:58;;;;;;;6.68;4.43;;;;;;;28.59;36.69;101485.56;144994;682;5002;-82
2021/09/15 10:57:36;;;;;;;9.80;7.43;;;;;;;28.55;36.45;101491.00;144993;590;5002;-78
2021/09/15 11:00:24;;;;;;;13.30;4.90;;;;;;;28.70;35.91;101481.66;144993;599;5002;-75
2021/09/15 11:02:50;;;;;;;7.05;4.78;;;;;;;28.75;36.35;101482.38;144994;617;5002;-80
2021/09/15 11:05:49;;;;;;;6.53;4.82;;;;;;;28.81;36.53;101478.59;144994;693;5003;-79
2021/09/15 11:08:46;;;;;;;4.75;4.25;;;;;;;28.73;36.55;101481.53;144994;714;5000;-78
2021/09/15 11:11:52;;;;;;;5.53;4.25;;;;;;;28.70;36.07;101470.97;144994;566;5002;-80
2021/09/15 11:14:18;;;;;;;7.50;4.30;;;;;;;28.55;36.32;101480.34;144994;652;5002;-78
2021/09/15 11:16:46;;;;;;;5.20;4.70;;;;;;;28.36;36.82;101467.63;144994;569;5002;-75
2021/09/15 11:19:18;;;;;;;6.97;4.55;;;;;;;28.29;37.39;101470.53;144994;573;5002;-77
2021/09/15 11:21:55;;;;;;;6.12;4.55;;;;;;;28.36;37.52;101461.38;144994;590;5002;-75
2021/09/15 11:24:25;;;;;;;5.65;4.40;;;;;;;28.36;37.73;101464.06;144994;584;5002;-80
2021/09/15 11:27:06;;;;;;;7.72;4.70;;;;;;;28.35;39.12;101454.31;144994;566;5002;-78
2021/09/15 11:29:38;;;;;;;4.97;4.47;;;;;;;28.41;38.77;101454.97;144994;650;5002;-78
2021/09/15 11:32:11;;;;;;;6.87;4.57;;;;;;;28.50;38.79;101452.91;144994;608;5002;-78
2021/09/15 11:34:41;;;;;;;5.62;4.47;;;;;;;28.40;38.85;101447.88;144994;570;5002;-79
2021/09/15 11:37:28;;;;;;;6.68;5.07;;;;;;;28.31;39.23;101442.84;144994;586;5002;-79
2021/09/15 11:40:03;;;;;;;8.30;4.72;;;;;;;28.38;39.31;101448.84;144994;571;5002;-78
2021/09/15 11:42:32;;;;;;;5.82;4.53;;;;;;;28.27;39.77;101449.22;144994;635;5002;-81